EPWA/WAW METAR and TAF weather

Enter ICAO airport designator
Station Type Date Time Source
EPWA METAR 2021/09/23 23:30 UTC NOAA

EPWA 232330Z 26020KT 9999 FEW025CB SCT030 15/12 Q0999 NOSIG


Station Type Date Time Source
EPWA Decoded METAR 2021/09/23 23:30 UTC NOAA

Warszawa-Okecie, Poland (EPWA) 52-10N 020-58E 107M
Sep 23, 2021 - 07:30 PM EDT / 2021.09.23 2330 UTC
Wind: from the W (260 degrees) at 23 MPH (20 KT):0
Visibility: greater than 7 mile(s):0
Sky conditions: partly cloudy
Weather: Cumulonimbus clouds observed
Temperature: 59 F (15 C)
Dew Point: 53 F (12 C)
Relative Humidity: 82%
Pressure (altimeter): 29.50 in. Hg (0999 hPa)
ob: EPWA 232330Z 26020KT 9999 FEW025CB SCT030 15/12 Q0999 NOSIG
cycle: 23

Station Type Date Time Source
EPWA TAF 2021/09/23 21:36 UTC NOAA

TAF EPWA 232030Z 2321/2421 21010KT 9999 SCT025 BKN040
BECMG 2321/2323 27017KT
TEMPO 2321/2402 28023G38KT -SHRA SCT012 BKN020CB
TEMPO 2402/2414 29022G34KT
BECMG 2417/2420 27007KT

Example: see airport list